Weather at EuroAirport Basel-Mulhouse-Freiburg Airport

Public forecast

Using degrees Celsius for public forecast. Weather courtesy of forecast.io.

Current aviation weather report (METAR) for EuroAirport Basel-Mulhouse-Freiburg Airport

Report is more than 6 hours old.

2022/11/14 15:30 (retrieved 2 years ago)

LFSB 141530Z AUTO 16006KT CAVOK 11/09 Q1015 TEMPO FEW040TCU

Aviation forecast (TAF) for EuroAirport Basel-Mulhouse-Freiburg Airport

Forecast is more than 12 hours old.

2023/02/22 18:22 (retrieved 1 year ago)

TAF LFSB 221700Z 2218/2318 VRB04KT 8000 BKN040 TEMPO 2218/2308 -RA PROB30 TEMPO 2218/2302 4000 -RA BKN008 FEW025TCU PROB30 TEMPO 2313/2317 FEW025TCU